sensor_id;sensor_type;location;lat;lon;timestamp;pressure;altitude;pressure_sealevel;temperature
66180;BMP280;52986;44.028;20.466;2023-02-21T00:02:31;98492.56;;;3.69
66180;BMP280;52986;44.028;20.466;2023-02-21T00:05:15;98489.94;;;3.65
66180;BMP280;52986;44.028;20.466;2023-02-21T00:07:58;98501.25;;;3.58
66180;BMP280;52986;44.028;20.466;2023-02-21T00:10:42;98494.78;;;3.49
66180;BMP280;52986;44.028;20.466;2023-02-21T00:13:26;98501.59;;;3.46
66180;BMP280;52986;44.028;20.466;2023-02-21T00:16:17;98493.25;;;3.44
66180;BMP280;52986;44.028;20.466;2023-02-21T00:19:02;98497.00;;;3.36
66180;BMP280;52986;44.028;20.466;2023-02-21T00:21:46;98495.44;;;3.28
66180;BMP280;52986;44.028;20.466;2023-02-21T00:24:30;98498.81;;;3.21
66180;BMP280;52986;44.028;20.466;2023-02-21T00:27:14;98500.31;;;3.19
66180;BMP280;52986;44.028;20.466;2023-02-21T00:29:58;98500.69;;;3.17
66180;BMP280;52986;44.028;20.466;2023-02-21T00:32:42;98498.06;;;3.21
66180;BMP280;52986;44.028;20.466;2023-02-21T00:35:26;98493.09;;;3.12
66180;BMP280;52986;44.028;20.466;2023-02-21T00:38:10;98493.84;;;3.13
66180;BMP280;52986;44.028;20.466;2023-02-21T00:40:53;98499.53;;;3.15
66180;BMP280;52986;44.028;20.466;2023-02-21T00:43:37;98505.94;;;3.10
66180;BMP280;52986;44.028;20.466;2023-02-21T00:46:21;98494.91;;;3.01
66180;BMP280;52986;44.028;20.466;2023-02-21T00:49:06;98491.84;;;2.95
66180;BMP280;52986;44.028;20.466;2023-02-21T00:51:50;98485.00;;;2.87
66180;BMP280;52986;44.028;20.466;2023-02-21T00:54:34;98481.56;;;2.80
66180;BMP280;52986;44.028;20.466;2023-02-21T00:57:18;98475.38;;;2.65
66180;BMP280;52986;44.028;20.466;2023-02-21T01:00:03;98478.06;;;2.68
66180;BMP280;52986;44.028;20.466;2023-02-21T01:02:48;98472.03;;;2.71
66180;BMP280;52986;44.028;20.466;2023-02-21T01:05:31;98469.72;;;2.63
66180;BMP280;52986;44.028;20.466;2023-02-21T01:08:15;98470.09;;;2.61
66180;BMP280;52986;44.028;20.466;2023-02-21T01:10:59;98465.97;;;2.64
66180;BMP280;52986;44.028;20.466;2023-02-21T01:13:43;98457.97;;;2.60
66180;BMP280;52986;44.028;20.466;2023-02-21T01:16:29;98468.56;;;2.60
66180;BMP280;52986;44.028;20.466;2023-02-21T01:19:14;98456.47;;;2.59
66180;BMP280;52986;44.028;20.466;2023-02-21T01:21:58;98450.38;;;2.52
66180;BMP280;52986;44.028;20.466;2023-02-21T01:24:42;98454.16;;;2.51
66180;BMP280;52986;44.028;20.466;2023-02-21T01:27:26;98450.75;;;2.50
66180;BMP280;52986;44.028;20.466;2023-02-21T01:30:10;98457.94;;;2.53
66180;BMP280;52986;44.028;20.466;2023-02-21T01:32:54;98456.41;;;2.52
66180;BMP280;52986;44.028;20.466;2023-02-21T01:35:38;98446.16;;;2.47
66180;BMP280;52986;44.028;20.466;2023-02-21T01:38:22;98453.25;;;2.36
66180;BMP280;52986;44.028;20.466;2023-02-21T01:41:06;98453.25;;;2.36
66180;BMP280;52986;44.028;20.466;2023-02-21T01:43:59;98450.22;;;2.34
66180;BMP280;52986;44.028;20.466;2023-02-21T01:46:43;98450.22;;;2.34
66180;BMP280;52986;44.028;20.466;2023-02-21T01:49:28;98451.34;;;2.33
66180;BMP280;52986;44.028;20.466;2023-02-21T01:52:13;98452.47;;;2.32
66180;BMP280;52986;44.028;20.466;2023-02-21T01:54:57;98442.63;;;2.29
66180;BMP280;52986;44.028;20.466;2023-02-21T01:57:43;98447.56;;;2.34
66180;BMP280;52986;44.028;20.466;2023-02-21T02:00:28;98436.63;;;2.32
66180;BMP280;52986;44.028;20.466;2023-02-21T02:03:16;98444.53;;;2.32
66180;BMP280;52986;44.028;20.466;2023-02-21T02:06:06;98440.00;;;2.32
66180;BMP280;52986;44.028;20.466;2023-02-21T02:08:51;98447.16;;;2.25
66180;BMP280;52986;44.028;20.466;2023-02-21T02:18:12;98428.13;;;2.12
66180;BMP280;52986;44.028;20.466;2023-02-21T02:36:50;98423.47;;;1.98
66180;BMP280;52986;44.028;20.466;2023-02-21T02:39:22;98424.28;;;2.02
66180;BMP280;52986;44.028;20.466;2023-02-21T02:44:29;98408.81;;;2.01
66180;BMP280;52986;44.028;20.466;2023-02-21T02:46:57;98412.22;;;2.05
66180;BMP280;52986;44.028;20.466;2023-02-21T02:49:27;98412.97;;;2.05
66180;BMP280;52986;44.028;20.466;2023-02-21T02:51:53;98417.88;;;2.03
66180;BMP280;52986;44.028;20.466;2023-02-21T02:54:19;98418.19;;;1.98
66180;BMP280;52986;44.028;20.466;2023-02-21T02:56:45;98410.56;;;1.89
66180;BMP280;52986;44.028;20.466;2023-02-21T02:59:15;98404.53;;;1.89
66180;BMP280;52986;44.028;20.466;2023-02-21T03:02:06;98395.13;;;1.91
66180;BMP280;52986;44.028;20.466;2023-02-21T03:12:50;98403.78;;;1.92
66180;BMP280;52986;44.028;20.466;2023-02-21T03:15:24;98398.81;;;1.80
66180;BMP280;52986;44.028;20.466;2023-02-21T03:18:02;98397.28;;;1.79
66180;BMP280;52986;44.028;20.466;2023-02-21T03:20:31;98398.72;;;1.73
66180;BMP280;52986;44.028;20.466;2023-02-21T03:22:57;98392.00;;;1.79
66180;BMP280;52986;44.028;20.466;2023-02-21T03:25:26;98397.28;;;1.79
66180;BMP280;52986;44.028;20.466;2023-02-21T03:27:53;98407.84;;;1.79
66180;BMP280;52986;44.028;20.466;2023-02-21T03:30:20;98399.94;;;1.79
66180;BMP280;52986;44.028;20.466;2023-02-21T03:32:48;98400.63;;;1.76
66180;BMP280;52986;44.028;20.466;2023-02-21T03:35:16;98397.16;;;1.68
66180;BMP280;52986;44.028;20.466;2023-02-21T03:37:44;98399.03;;;1.68
66180;BMP280;52986;44.028;20.466;2023-02-21T03:42:44;98396.28;;;1.57
66180;BMP280;52986;44.028;20.466;2023-02-21T03:45:09;98404.25;;;1.60
66180;BMP280;52986;44.028;20.466;2023-02-21T03:47:35;98406.84;;;1.57
66180;BMP280;52986;44.028;20.466;2023-02-21T03:50:01;98403.38;;;1.49
66180;BMP280;52986;44.028;20.466;2023-02-21T03:52:26;98408.66;;;1.49
66180;BMP280;52986;44.028;20.466;2023-02-21T03:54:52;98416.19;;;1.51
66180;BMP280;52986;44.028;20.466;2023-02-21T03:57:17;98416.19;;;1.51
66180;BMP280;52986;44.028;20.466;2023-02-21T03:59:44;98408.69;;;1.53
66180;BMP280;52986;44.028;20.466;2023-02-21T04:02:09;98414.69;;;1.50
66180;BMP280;52986;44.028;20.466;2023-02-21T04:04:35;98408.63;;;1.46
66180;BMP280;52986;44.028;20.466;2023-02-21T04:07:00;98412.03;;;1.46
66180;BMP280;52986;44.028;20.466;2023-02-21T04:09:26;98404.78;;;1.40
66180;BMP280;52986;44.028;20.466;2023-02-21T04:11:51;98400.19;;;1.33
66180;BMP280;52986;44.028;20.466;2023-02-21T04:14:16;98412.97;;;1.31
66180;BMP280;52986;44.028;20.466;2023-02-21T04:16:42;98395.63;;;1.30
66180;BMP280;52986;44.028;20.466;2023-02-21T04:19:07;98404.97;;;1.24
66180;BMP280;52986;44.028;20.466;2023-02-21T04:21:33;98401.16;;;1.21
66180;BMP280;52986;44.028;20.466;2023-02-21T04:23:58;98394.03;;;1.22
66180;BMP280;52986;44.028;20.466;2023-02-21T04:26:24;98394.03;;;1.22
66180;BMP280;52986;44.028;20.466;2023-02-21T04:28:50;98394.03;;;1.22
66180;BMP280;52986;44.028;20.466;2023-02-21T04:31:16;98388.41;;;1.27
66180;BMP280;52986;44.028;20.466;2023-02-21T04:33:42;98389.47;;;1.19
66180;BMP280;52986;44.028;20.466;2023-02-21T04:36:07;98393.13;;;1.11
66180;BMP280;52986;44.028;20.466;2023-02-21T04:38:33;98391.19;;;1.07
66180;BMP280;52986;44.028;20.466;2023-02-21T04:40:58;98390.41;;;1.03
66180;BMP280;52986;44.028;20.466;2023-02-21T04:43:24;98397.97;;;1.08
66180;BMP280;52986;44.028;20.466;2023-02-21T04:45:49;98393.84;;;1.07
66180;BMP280;52986;44.028;20.466;2023-02-21T04:48:14;98384.34;;;1.03
66180;BMP280;52986;44.028;20.466;2023-02-21T04:50:40;98390.72;;;0.98
66180;BMP280;52986;44.028;20.466;2023-02-21T04:53:05;98383.94;;;0.97
66180;BMP280;52986;44.028;20.466;2023-02-21T04:55:30;98382.44;;;1.00
66180;BMP280;52986;44.028;20.466;2023-02-21T04:57:56;98395.25;;;1.01
66180;BMP280;52986;44.028;20.466;2023-02-21T05:00:21;98394.03;;;0.95
66180;BMP280;52986;44.028;20.466;2023-02-21T05:02:47;98394.31;;;0.87
66180;BMP280;52986;44.028;20.466;2023-02-21T05:05:13;98405.66;;;0.91
66180;BMP280;52986;44.028;20.466;2023-02-21T05:07:40;98393.50;;;0.82
66180;BMP280;52986;44.028;20.466;2023-02-21T05:10:06;98402.94;;;0.84
66180;BMP280;52986;44.028;20.466;2023-02-21T05:12:32;98393.47;;;0.79
66180;BMP280;52986;44.028;20.466;2023-02-21T05:14:58;98401.72;;;0.77
66180;BMP280;52986;44.028;20.466;2023-02-21T05:17:23;98395.06;;;0.87
66180;BMP280;52986;44.028;20.466;2023-02-21T05:19:49;98394.22;;;0.79
66180;BMP280;52986;44.028;20.466;2023-02-21T05:22:15;98391.59;;;0.79
66180;BMP280;52986;44.028;20.466;2023-02-21T05:24:44;98398.31;;;0.77
66180;BMP280;52986;44.028;20.466;2023-02-21T05:27:11;98395.56;;;0.70
66180;BMP280;52986;44.028;20.466;2023-02-21T05:29:40;98383.16;;;0.70
66180;BMP280;52986;44.028;20.466;2023-02-21T05:32:06;98379.81;;;0.73
66180;BMP280;52986;44.028;20.466;2023-02-21T05:34:31;98380.53;;;0.70
66180;BMP280;52986;44.028;20.466;2023-02-21T05:36:57;98386.66;;;0.78
66180;BMP280;52986;44.028;20.466;2023-02-21T05:39:23;98376.56;;;0.84
66180;BMP280;52986;44.028;20.466;2023-02-21T05:41:49;98387.19;;;0.91
66180;BMP280;52986;44.028;20.466;2023-02-21T05:44:14;98375.91;;;0.90
66180;BMP280;52986;44.028;20.466;2023-02-21T05:46:40;98369.06;;;0.86
66180;BMP280;52986;44.028;20.466;2023-02-21T05:49:06;98365.78;;;0.92
66180;BMP280;52986;44.028;20.466;2023-02-21T05:51:40;98364.72;;;1.00
66180;BMP280;52986;44.028;20.466;2023-02-21T05:54:07;98373.53;;;1.12
66180;BMP280;52986;44.028;20.466;2023-02-21T05:56:37;98381.53;;;1.19
66180;BMP280;52986;44.028;20.466;2023-02-21T05:59:04;98380.03;;;1.18
66180;BMP280;52986;44.028;20.466;2023-02-21T06:01:29;98387.81;;;1.07
66180;BMP280;52986;44.028;20.466;2023-02-21T06:03:54;98389.31;;;1.08
66180;BMP280;52986;44.028;20.466;2023-02-21T06:06:20;98387.09;;;1.10
66180;BMP280;52986;44.028;20.466;2023-02-21T06:08:47;98385.94;;;1.07
66180;BMP280;52986;44.028;20.466;2023-02-21T06:11:14;98386.44;;;1.17
66180;BMP280;52986;44.028;20.466;2023-02-21T06:13:40;98387.28;;;1.24
66180;BMP280;52986;44.028;20.466;2023-02-21T06:16:05;98384.75;;;1.35
66180;BMP280;52986;44.028;20.466;2023-02-21T06:18:31;98385.63;;;1.46
66180;BMP280;52986;44.028;20.466;2023-02-21T06:20:57;98391.81;;;1.61
66180;BMP280;52986;44.028;20.466;2023-02-21T06:23:22;98394.34;;;1.91
66180;BMP280;52986;44.028;20.466;2023-02-21T06:25:48;98404.50;;;2.30
66180;BMP280;52986;44.028;20.466;2023-02-21T06:28:13;98398.63;;;2.54
66180;BMP280;52986;44.028;20.466;2023-02-21T06:30:38;98394.66;;;2.82
66180;BMP280;52986;44.028;20.466;2023-02-21T06:33:04;98404.00;;;3.52
66180;BMP280;52986;44.028;20.466;2023-02-21T06:35:29;98402.94;;;4.03
66180;BMP280;52986;44.028;20.466;2023-02-21T06:37:55;98408.44;;;5.05
66180;BMP280;52986;44.028;20.466;2023-02-21T06:40:20;98408.50;;;6.53
66180;BMP280;52986;44.028;20.466;2023-02-21T06:42:45;98397.00;;;7.24
66180;BMP280;52986;44.028;20.466;2023-02-21T06:45:11;98398.06;;;7.57
66180;BMP280;52986;44.028;20.466;2023-02-21T06:47:36;98398.81;;;7.58
66180;BMP280;52986;44.028;20.466;2023-02-21T06:50:02;98402.94;;;8.29
66180;BMP280;52986;44.028;20.466;2023-02-21T06:52:29;98404.22;;;8.64
66180;BMP280;52986;44.028;20.466;2023-02-21T06:54:54;98396.69;;;9.15
66180;BMP280;52986;44.028;20.466;2023-02-21T06:57:20;98404.56;;;9.55
66180;BMP280;52986;44.028;20.466;2023-02-21T06:59:45;98391.97;;;10.29
66180;BMP280;52986;44.028;20.466;2023-02-21T07:02:16;98400.78;;;11.10
66180;BMP280;52986;44.028;20.466;2023-02-21T07:04:45;98409.53;;;11.36
66180;BMP280;52986;44.028;20.466;2023-02-21T07:07:11;98404.19;;;11.48
66180;BMP280;52986;44.028;20.466;2023-02-21T07:09:36;98399.09;;;11.98
66180;BMP280;52986;44.028;20.466;2023-02-21T07:12:02;98407.94;;;12.51
66180;BMP280;52986;44.028;20.466;2023-02-21T07:14:28;98405.69;;;13.11
66180;BMP280;52986;44.028;20.466;2023-02-21T07:16:53;98408.66;;;13.04
66180;BMP280;52986;44.028;20.466;2023-02-21T07:19:19;98407.56;;;13.60
66180;BMP280;52986;44.028;20.466;2023-02-21T07:21:45;98411.88;;;14.22
66180;BMP280;52986;44.028;20.466;2023-02-21T07:24:12;98419.44;;;14.60
66180;BMP280;52986;44.028;20.466;2023-02-21T07:26:38;98413.03;;;15.14
66180;BMP280;52986;44.028;20.466;2023-02-21T07:29:04;98406.63;;;15.12
66180;BMP280;52986;44.028;20.466;2023-02-21T07:31:30;98409.59;;;15.37
66180;BMP280;52986;44.028;20.466;2023-02-21T07:33:55;98406.34;;;15.72
66180;BMP280;52986;44.028;20.466;2023-02-21T07:36:21;98414.88;;;16.24
66180;BMP280;52986;44.028;20.466;2023-02-21T07:38:47;98412.28;;;16.79
66180;BMP280;52986;44.028;20.466;2023-02-21T07:41:14;98398.31;;;17.21
66180;BMP280;52986;44.028;20.466;2023-02-21T07:43:39;98408.50;;;17.78
66180;BMP280;52986;44.028;20.466;2023-02-21T07:46:09;98403.28;;;17.49
66180;BMP280;52986;44.028;20.466;2023-02-21T07:48:35;98401.03;;;17.93
66180;BMP280;52986;44.028;20.466;2023-02-21T07:51:00;98401.38;;;18.06
66180;BMP280;52986;44.028;20.466;2023-02-21T07:53:26;98397.72;;;18.41
66180;BMP280;52986;44.028;20.466;2023-02-21T07:55:51;98401.44;;;20.12
66180;BMP280;52986;44.028;20.466;2023-02-21T07:58:17;98402.94;;;19.80
66180;BMP280;52986;44.028;20.466;2023-02-21T08:00:42;98404.91;;;19.74
66180;BMP280;52986;44.028;20.466;2023-02-21T08:03:11;98397.25;;;20.17
66180;BMP280;52986;44.028;20.466;2023-02-21T08:05:37;98398.69;;;20.46
66180;BMP280;52986;44.028;20.466;2023-02-21T08:08:02;98390.94;;;20.67
66180;BMP280;52986;44.028;20.466;2023-02-21T08:10:27;98394.63;;;20.86
66180;BMP280;52986;44.028;20.466;2023-02-21T08:12:53;98392.75;;;21.11
66180;BMP280;52986;44.028;20.466;2023-02-21T08:15:19;98400.41;;;21.59
66180;BMP280;52986;44.028;20.466;2023-02-21T08:17:48;98385.78;;;22.41
66180;BMP280;52986;44.028;20.466;2023-02-21T08:20:14;98384.94;;;22.70
66180;BMP280;52986;44.028;20.466;2023-02-21T08:22:40;98384.28;;;23.97
66180;BMP280;52986;44.028;20.466;2023-02-21T08:25:05;98392.16;;;24.53
66180;BMP280;52986;44.028;20.466;2023-02-21T08:27:31;98386.75;;;25.08
66180;BMP280;52986;44.028;20.466;2023-02-21T08:29:56;98376.16;;;27.13
66180;BMP280;52986;44.028;20.466;2023-02-21T08:32:22;98368.59;;;26.68
66180;BMP280;52986;44.028;20.466;2023-02-21T08:34:48;98365.19;;;27.66
66180;BMP280;52986;44.028;20.466;2023-02-21T08:37:14;98368.28;;;27.62
66180;BMP280;52986;44.028;20.466;2023-02-21T08:39:48;98366.47;;;28.28
66180;BMP280;52986;44.028;20.466;2023-02-21T08:42:15;98357.97;;;28.33
66180;BMP280;52986;44.028;20.466;2023-02-21T08:44:44;98361.84;;;27.60
66180;BMP280;52986;44.028;20.466;2023-02-21T08:47:11;98365.63;;;28.02
66180;BMP280;52986;44.028;20.466;2023-02-21T08:49:36;98358.25;;;28.05
66180;BMP280;52986;44.028;20.466;2023-02-21T08:52:07;98349.03;;;27.32
66180;BMP280;52986;44.028;20.466;2023-02-21T08:54:32;98354.50;;;27.77
66180;BMP280;52986;44.028;20.466;2023-02-21T08:56:58;98347.19;;;26.89
66180;BMP280;52986;44.028;20.466;2023-02-21T08:59:24;98344.81;;;27.46
66180;BMP280;52986;44.028;20.466;2023-02-21T09:01:50;98344.31;;;28.03
66180;BMP280;52986;44.028;20.466;2023-02-21T09:04:15;98339.84;;;27.07
66180;BMP280;52986;44.028;20.466;2023-02-21T09:06:40;98337.47;;;27.03
66180;BMP280;52986;44.028;20.466;2023-02-21T09:09:06;98340.97;;;27.11
66180;BMP280;52986;44.028;20.466;2023-02-21T09:11:31;98341.81;;;28.62
66180;BMP280;52986;44.028;20.466;2023-02-21T09:13:57;98329.63;;;28.73
66180;BMP280;52986;44.028;20.466;2023-02-21T09:16:22;98340.31;;;28.69
66180;BMP280;52986;44.028;20.466;2023-02-21T09:18:58;98335.78;;;28.24
66180;BMP280;52986;44.028;20.466;2023-02-21T09:21:25;98336.94;;;28.78
66180;BMP280;52986;44.028;20.466;2023-02-21T09:23:52;98337.22;;;27.85
66180;BMP280;52986;44.028;20.466;2023-02-21T09:26:18;98340.53;;;28.63
66180;BMP280;52986;44.028;20.466;2023-02-21T09:28:43;98340.00;;;30.54
66180;BMP280;52986;44.028;20.466;2023-02-21T09:31:09;98344.50;;;28.45
66180;BMP280;52986;44.028;20.466;2023-02-21T09:33:38;98329.59;;;30.35
66180;BMP280;52986;44.028;20.466;2023-02-21T09:36:07;98329.66;;;30.01
66180;BMP280;52986;44.028;20.466;2023-02-21T09:38:33;98325.88;;;29.62
66180;BMP280;52986;44.028;20.466;2023-02-21T09:41:00;98327.31;;;29.97
66180;BMP280;52986;44.028;20.466;2023-02-21T09:43:35;98321.53;;;30.03
66180;BMP280;52986;44.028;20.466;2023-02-21T09:46:05;98317.59;;;29.62
66180;BMP280;52986;44.028;20.466;2023-02-21T09:48:33;98324.97;;;29.59
66180;BMP280;52986;44.028;20.466;2023-02-21T09:51:02;98319.47;;;30.47
66180;BMP280;52986;44.028;20.466;2023-02-21T09:53:31;98323.84;;;30.23
66180;BMP280;52986;44.028;20.466;2023-02-21T09:56:01;98326.69;;;29.55
66180;BMP280;52986;44.028;20.466;2023-02-21T09:58:29;98314.38;;;31.19
66180;BMP280;52986;44.028;20.466;2023-02-21T10:01:02;98321.81;;;30.24
66180;BMP280;52986;44.028;20.466;2023-02-21T10:09:17;98310.78;;;31.64
66180;BMP280;52986;44.028;20.466;2023-02-21T10:11:58;98306.25;;;31.30
66180;BMP280;52986;44.028;20.466;2023-02-21T10:17:29;98299.19;;;29.91
66180;BMP280;52986;44.028;20.466;2023-02-21T10:20:08;98295.59;;;31.65
66180;BMP280;52986;44.028;20.466;2023-02-21T10:22:38;98283.03;;;30.87
66180;BMP280;52986;44.028;20.466;2023-02-21T10:25:27;98273.44;;;31.27
66180;BMP280;52986;44.028;20.466;2023-02-21T10:27:53;98279.03;;;31.96
66180;BMP280;52986;44.028;20.466;2023-02-21T10:30:26;98272.81;;;31.76
66180;BMP280;52986;44.028;20.466;2023-02-21T10:32:53;98267.16;;;32.76
66180;BMP280;52986;44.028;20.466;2023-02-21T10:35:19;98256.31;;;31.88
66180;BMP280;52986;44.028;20.466;2023-02-21T10:43:04;98251.56;;;33.25
66180;BMP280;52986;44.028;20.466;2023-02-21T10:45:39;98240.81;;;34.71
66180;BMP280;52986;44.028;20.466;2023-02-21T10:48:08;98239.81;;;33.71
66180;BMP280;52986;44.028;20.466;2023-02-21T10:53:03;98242.13;;;33.98
66180;BMP280;52986;44.028;20.466;2023-02-21T10:55:29;98223.72;;;34.40
66180;BMP280;52986;44.028;20.466;2023-02-21T10:57:56;98226.38;;;35.50
66180;BMP280;52986;44.028;20.466;2023-02-21T11:00:29;98219.94;;;35.09
66180;BMP280;52986;44.028;20.466;2023-02-21T11:03:04;98210.88;;;33.30
66180;BMP280;52986;44.028;20.466;2023-02-21T11:05:30;98212.91;;;32.75
66180;BMP280;52986;44.028;20.466;2023-02-21T11:08:04;98206.84;;;32.89
66180;BMP280;52986;44.028;20.466;2023-02-21T11:10:40;98208.25;;;32.78
66180;BMP280;52986;44.028;20.466;2023-02-21T11:13:15;98205.47;;;33.11
66180;BMP280;52986;44.028;20.466;2023-02-21T11:15:43;98165.19;;;33.33
66180;BMP280;52986;44.028;20.466;2023-02-21T11:18:13;98167.34;;;31.05
66180;BMP280;52986;44.028;20.466;2023-02-21T11:20:39;98151.38;;;29.56
66180;BMP280;52986;44.028;20.466;2023-02-21T11:23:17;98159.13;;;28.12
66180;BMP280;52986;44.028;20.466;2023-02-21T11:25:42;98165.94;;;27.31
66180;BMP280;52986;44.028;20.466;2023-02-21T11:30:36;98153.88;;;27.19
66180;BMP280;52986;44.028;20.466;2023-02-21T11:33:03;98161.75;;;27.70
66180;BMP280;52986;44.028;20.466;2023-02-21T11:35:33;98158.28;;;27.94
66180;BMP280;52986;44.028;20.466;2023-02-21T11:38:05;98149.84;;;28.42
66180;BMP280;52986;44.028;20.466;2023-02-21T11:40:48;98145.78;;;30.00
66180;BMP280;52986;44.028;20.466;2023-02-21T11:43:28;98145.34;;;30.49
66180;BMP280;52986;44.028;20.466;2023-02-21T11:46:18;98142.13;;;31.10
66180;BMP280;52986;44.028;20.466;2023-02-21T11:49:04;98144.16;;;31.10
66180;BMP280;52986;44.028;20.466;2023-02-21T11:51:42;98148.91;;;31.48
66180;BMP280;52986;44.028;20.466;2023-02-21T11:54:09;98148.06;;;33.37
66180;BMP280;52986;44.028;20.466;2023-02-21T11:56:56;98144.53;;;35.05
66180;BMP280;52986;44.028;20.466;2023-02-21T12:02:35;98122.78;;;35.29
66180;BMP280;52986;44.028;20.466;2023-02-21T12:16:17;98118.78;;;34.67
66180;BMP280;52986;44.028;20.466;2023-02-21T12:26:56;98104.88;;;34.42
66180;BMP280;52986;44.028;20.466;2023-02-21T12:29:44;98102.75;;;34.54
66180;BMP280;52986;44.028;20.466;2023-02-21T12:37:52;98089.03;;;33.96
66180;BMP280;52986;44.028;20.466;2023-02-21T12:48:41;98086.09;;;32.78
66180;BMP280;52986;44.028;20.466;2023-02-21T12:51:20;98079.22;;;31.82
66180;BMP280;52986;44.028;20.466;2023-02-21T12:53:54;98044.88;;;30.66
66180;BMP280;52986;44.028;20.466;2023-02-21T12:56:43;98045.22;;;28.95
66180;BMP280;52986;44.028;20.466;2023-02-21T13:05:40;98041.84;;;24.29
66180;BMP280;52986;44.028;20.466;2023-02-21T13:08:18;98037.56;;;23.79
66180;BMP280;52986;44.028;20.466;2023-02-21T13:13:31;98034.97;;;23.13
66180;BMP280;52986;44.028;20.466;2023-02-21T13:16:03;98041.13;;;22.48
66180;BMP280;52986;44.028;20.466;2023-02-21T13:18:34;98046.13;;;22.30
66180;BMP280;52986;44.028;20.466;2023-02-21T13:24:04;98048.19;;;21.74
66180;BMP280;52986;44.028;20.466;2023-02-21T13:26:54;98048.69;;;21.72
66180;BMP280;52986;44.028;20.466;2023-02-21T13:29:28;98039.16;;;21.60
66180;BMP280;52986;44.028;20.466;2023-02-21T13:32:15;98032.56;;;21.55
66180;BMP280;52986;44.028;20.466;2023-02-21T13:37:24;98034.16;;;21.26
66180;BMP280;52986;44.028;20.466;2023-02-21T13:39:54;98030.47;;;21.00
66180;BMP280;52986;44.028;20.466;2023-02-21T13:42:24;98036.59;;;21.06
66180;BMP280;52986;44.028;20.466;2023-02-21T13:47:27;98023.50;;;20.80
66180;BMP280;52986;44.028;20.466;2023-02-21T13:54:02;98028.66;;;20.59
66180;BMP280;52986;44.028;20.466;2023-02-21T13:56:39;98026.41;;;20.57
66180;BMP280;52986;44.028;20.466;2023-02-21T14:02:15;98020.56;;;20.48
66180;BMP280;52986;44.028;20.466;2023-02-21T14:10:38;98029.28;;;20.05
66180;BMP280;52986;44.028;20.466;2023-02-21T14:13:37;98023.91;;;19.94
66180;BMP280;52986;44.028;20.466;2023-02-21T14:18:44;98027.94;;;19.82
66180;BMP280;52986;44.028;20.466;2023-02-21T14:21:39;98033.19;;;19.74
66180;BMP280;52986;44.028;20.466;2023-02-21T14:24:09;98031.69;;;19.73
66180;BMP280;52986;44.028;20.466;2023-02-21T14:26:40;98029.97;;;19.70
66180;BMP280;52986;44.028;20.466;2023-02-21T14:31:51;98029.75;;;19.63
66180;BMP280;52986;44.028;20.466;2023-02-21T14:34:22;98033.75;;;19.50
66180;BMP280;52986;44.028;20.466;2023-02-21T14:36:50;98036.75;;;19.36
66180;BMP280;52986;44.028;20.466;2023-02-21T14:39:16;98030.38;;;19.28
66180;BMP280;52986;44.028;20.466;2023-02-21T14:42:02;98020.78;;;19.15
66180;BMP280;52986;44.028;20.466;2023-02-21T14:50:19;98013.16;;;19.03
66180;BMP280;52986;44.028;20.466;2023-02-21T14:55:48;98012.69;;;18.99
66180;BMP280;52986;44.028;20.466;2023-02-21T14:58:34;98016.38;;;18.96
66180;BMP280;52986;44.028;20.466;2023-02-21T15:01:14;98014.94;;;18.89
66180;BMP280;52986;44.028;20.466;2023-02-21T15:03:47;98006.50;;;18.87
66180;BMP280;52986;44.028;20.466;2023-02-21T15:06:20;98011.22;;;18.75
66180;BMP280;52986;44.028;20.466;2023-02-21T15:08:49;98016.94;;;18.72
66180;BMP280;52986;44.028;20.466;2023-02-21T15:11:25;98016.63;;;18.64
66180;BMP280;52986;44.028;20.466;2023-02-21T15:16:43;98006.03;;;18.50
66180;BMP280;52986;44.028;20.466;2023-02-21T15:24:38;98014.44;;;18.40
66180;BMP280;52986;44.028;20.466;2023-02-21T15:27:11;98013.94;;;18.36
66180;BMP280;52986;44.028;20.466;2023-02-21T15:29:37;98015.41;;;18.26
66180;BMP280;52986;44.028;20.466;2023-02-21T15:32:03;98024.78;;;18.20
66180;BMP280;52986;44.028;20.466;2023-02-21T15:37:23;98018.34;;;18.11
66180;BMP280;52986;44.028;20.466;2023-02-21T15:39:53;98029.91;;;18.01
66180;BMP280;52986;44.028;20.466;2023-02-21T15:42:20;98025.91;;;17.85
66180;BMP280;52986;44.028;20.466;2023-02-21T15:44:50;98026.34;;;17.72
66180;BMP280;52986;44.028;20.466;2023-02-21T15:47:20;98029.03;;;17.61
66180;BMP280;52986;44.028;20.466;2023-02-21T15:52:48;98032.16;;;17.49
66180;BMP280;52986;44.028;20.466;2023-02-21T16:00:34;98034.81;;;17.32
66180;BMP280;52986;44.028;20.466;2023-02-21T16:05:49;98036.41;;;17.18
66180;BMP280;52986;44.028;20.466;2023-02-21T16:08:15;98036.34;;;17.07
66180;BMP280;52986;44.028;20.466;2023-02-21T16:10:42;98038.06;;;17.04
66180;BMP280;52986;44.028;20.466;2023-02-21T16:13:08;98036.09;;;17.05
66180;BMP280;52986;44.028;20.466;2023-02-21T16:15:35;98042.81;;;17.15
66180;BMP280;52986;44.028;20.466;2023-02-21T16:18:06;98038.88;;;17.16
66180;BMP280;52986;44.028;20.466;2023-02-21T16:20:36;98040.81;;;17.10
66180;BMP280;52986;44.028;20.466;2023-02-21T16:25:59;98050.97;;;16.84
66180;BMP280;52986;44.028;20.466;2023-02-21T16:28:25;98050.91;;;16.78
66180;BMP280;52986;44.028;20.466;2023-02-21T16:30:51;98049.78;;;16.64
66180;BMP280;52986;44.028;20.466;2023-02-21T16:33:17;98053.91;;;16.54
66180;BMP280;52986;44.028;20.466;2023-02-21T16:35:42;98061.44;;;16.45
66180;BMP280;52986;44.028;20.466;2023-02-21T16:38:17;98057.72;;;16.22
66180;BMP280;52986;44.028;20.466;2023-02-21T16:40:43;98057.03;;;16.01
66180;BMP280;52986;44.028;20.466;2023-02-21T16:43:18;98063.69;;;15.85
66180;BMP280;52986;44.028;20.466;2023-02-21T16:45:45;98071.78;;;15.65
66180;BMP280;52986;44.028;20.466;2023-02-21T16:48:17;98071.06;;;15.50
66180;BMP280;52986;44.028;20.466;2023-02-21T16:50:45;98064.81;;;15.23
66180;BMP280;52986;44.028;20.466;2023-02-21T16:53:11;98063.81;;;15.06
66180;BMP280;52986;44.028;20.466;2023-02-21T16:55:37;98079.38;;;14.96
66180;BMP280;52986;44.028;20.466;2023-02-21T16:58:07;98077.75;;;14.75
66180;BMP280;52986;44.028;20.466;2023-02-21T17:00:36;98080.78;;;14.53
66180;BMP280;52986;44.028;20.466;2023-02-21T17:03:01;98076.38;;;14.26
66180;BMP280;52986;44.028;20.466;2023-02-21T17:05:27;98087.13;;;14.11